sensor_id;sensor_type;location;lat;lon;timestamp;temperature;humidity
3770;DHT22;1900;48.890;9.190;2023-05-07T00:00:45;21.90;51.50
3770;DHT22;1900;48.890;9.190;2023-05-07T00:03:11;21.90;51.60
3770;DHT22;1900;48.890;9.190;2023-05-07T00:05:38;21.90;51.60
3770;DHT22;1900;48.890;9.190;2023-05-07T00:08:04;21.90;51.70
3770;DHT22;1900;48.890;9.190;2023-05-07T00:10:30;21.90;51.70
3770;DHT22;1900;48.890;9.190;2023-05-07T00:12:56;21.90;51.70
3770;DHT22;1900;48.890;9.190;2023-05-07T00:15:21;21.90;51.80
3770;DHT22;1900;48.890;9.190;2023-05-07T00:17:47;21.90;51.80
3770;DHT22;1900;48.890;9.190;2023-05-07T00:20:13;21.90;51.70
3770;DHT22;1900;48.890;9.190;2023-05-07T00:22:38;21.90;51.70
3770;DHT22;1900;48.890;9.190;2023-05-07T00:25:05;21.90;51.70
3770;DHT22;1900;48.890;9.190;2023-05-07T00:27:31;21.80;51.60
3770;DHT22;1900;48.890;9.190;2023-05-07T00:29:57;21.80;51.60
3770;DHT22;1900;48.890;9.190;2023-05-07T00:32:22;21.80;51.60
3770;DHT22;1900;48.890;9.190;2023-05-07T00:34:48;21.80;51.60
3770;DHT22;1900;48.890;9.190;2023-05-07T00:37:13;21.80;51.60
3770;DHT22;1900;48.890;9.190;2023-05-07T00:39:39;21.80;51.60
3770;DHT22;1900;48.890;9.190;2023-05-07T00:42:05;21.70;51.50
3770;DHT22;1900;48.890;9.190;2023-05-07T00:44:33;21.70;51.50
3770;DHT22;1900;48.890;9.190;2023-05-07T00:47:01;21.70;51.50
3770;DHT22;1900;48.890;9.190;2023-05-07T00:49:39;21.60;51.50
3770;DHT22;1900;48.890;9.190;2023-05-07T00:52:13;21.60;51.60
3770;DHT22;1900;48.890;9.190;2023-05-07T00:54:40;21.60;51.60
3770;DHT22;1900;48.890;9.190;2023-05-07T00:57:06;21.60;51.70
3770;DHT22;1900;48.890;9.190;2023-05-07T00:59:32;21.50;51.60
3770;DHT22;1900;48.890;9.190;2023-05-07T01:01:59;21.50;51.60
3770;DHT22;1900;48.890;9.190;2023-05-07T01:04:25;21.50;51.60
3770;DHT22;1900;48.890;9.190;2023-05-07T01:06:52;21.50;51.60
3770;DHT22;1900;48.890;9.190;2023-05-07T01:09:19;21.50;51.70
3770;DHT22;1900;48.890;9.190;2023-05-07T01:11:47;21.50;51.70
3770;DHT22;1900;48.890;9.190;2023-05-07T01:14:13;21.50;51.70
3770;DHT22;1900;48.890;9.190;2023-05-07T01:16:39;21.40;51.60
3770;DHT22;1900;48.890;9.190;2023-05-07T01:19:06;21.40;51.60
3770;DHT22;1900;48.890;9.190;2023-05-07T01:21:33;21.40;51.70
3770;DHT22;1900;48.890;9.190;2023-05-07T01:24:07;21.40;51.60
3770;DHT22;1900;48.890;9.190;2023-05-07T01:26:33;21.40;51.60
3770;DHT22;1900;48.890;9.190;2023-05-07T01:28:58;21.30;51.50
3770;DHT22;1900;48.890;9.190;2023-05-07T01:31:28;21.30;51.50
3770;DHT22;1900;48.890;9.190;2023-05-07T01:33:55;21.30;51.50
3770;DHT22;1900;48.890;9.190;2023-05-07T01:36:23;21.30;51.60
3770;DHT22;1900;48.890;9.190;2023-05-07T01:38:51;21.20;51.60
3770;DHT22;1900;48.890;9.190;2023-05-07T01:41:20;21.30;51.70
3770;DHT22;1900;48.890;9.190;2023-05-07T01:43:47;21.30;51.80
3770;DHT22;1900;48.890;9.190;2023-05-07T01:46:13;21.30;51.80
3770;DHT22;1900;48.890;9.190;2023-05-07T01:48:40;21.20;51.70
3770;DHT22;1900;48.890;9.190;2023-05-07T01:51:06;21.20;51.80
3770;DHT22;1900;48.890;9.190;2023-05-07T01:53:40;21.20;51.80
3770;DHT22;1900;48.890;9.190;2023-05-07T01:56:06;21.20;51.90
3770;DHT22;1900;48.890;9.190;2023-05-07T01:58:36;21.20;51.80
3770;DHT22;1900;48.890;9.190;2023-05-07T02:01:02;21.20;51.90
3770;DHT22;1900;48.890;9.190;2023-05-07T02:03:28;21.20;51.80
3770;DHT22;1900;48.890;9.190;2023-05-07T02:06:03;21.20;51.80
3770;DHT22;1900;48.890;9.190;2023-05-07T02:08:32;21.20;51.80
3770;DHT22;1900;48.890;9.190;2023-05-07T02:10:59;21.20;51.80
3770;DHT22;1900;48.890;9.190;2023-05-07T02:13:28;21.20;51.80
3770;DHT22;1900;48.890;9.190;2023-05-07T02:15:54;21.20;51.80
3770;DHT22;1900;48.890;9.190;2023-05-07T02:18:19;21.20;51.90
3770;DHT22;1900;48.890;9.190;2023-05-07T02:20:48;21.20;51.80
3770;DHT22;1900;48.890;9.190;2023-05-07T02:23:14;21.20;51.80
3770;DHT22;1900;48.890;9.190;2023-05-07T02:25:42;21.20;51.80
3770;DHT22;1900;48.890;9.190;2023-05-07T02:28:08;21.10;51.70
3770;DHT22;1900;48.890;9.190;2023-05-07T02:30:49;21.10;51.70
3770;DHT22;1900;48.890;9.190;2023-05-07T02:33:15;21.10;51.70
3770;DHT22;1900;48.890;9.190;2023-05-07T02:35:41;21.10;51.70
3770;DHT22;1900;48.890;9.190;2023-05-07T02:38:07;21.10;51.80
3770;DHT22;1900;48.890;9.190;2023-05-07T02:40:34;21.00;51.70
3770;DHT22;1900;48.890;9.190;2023-05-07T02:43:00;21.00;51.80
3770;DHT22;1900;48.890;9.190;2023-05-07T02:45:26;21.00;51.70
3770;DHT22;1900;48.890;9.190;2023-05-07T02:47:54;21.00;51.70
3770;DHT22;1900;48.890;9.190;2023-05-07T02:50:20;21.00;51.80
3770;DHT22;1900;48.890;9.190;2023-05-07T02:52:49;21.00;51.80
3770;DHT22;1900;48.890;9.190;2023-05-07T02:55:15;20.90;51.70
3770;DHT22;1900;48.890;9.190;2023-05-07T02:57:41;20.90;51.70
3770;DHT22;1900;48.890;9.190;2023-05-07T03:00:16;20.90;51.70
3770;DHT22;1900;48.890;9.190;2023-05-07T03:02:49;20.90;51.80
3770;DHT22;1900;48.890;9.190;2023-05-07T03:05:17;20.90;51.70
3770;DHT22;1900;48.890;9.190;2023-05-07T03:07:43;20.80;51.70
3770;DHT22;1900;48.890;9.190;2023-05-07T03:10:11;20.80;51.70
3770;DHT22;1900;48.890;9.190;2023-05-07T03:12:37;20.80;51.70
3770;DHT22;1900;48.890;9.190;2023-05-07T03:15:03;20.80;51.70
3770;DHT22;1900;48.890;9.190;2023-05-07T03:17:30;20.80;51.70
3770;DHT22;1900;48.890;9.190;2023-05-07T03:19:56;20.80;51.70
3770;DHT22;1900;48.890;9.190;2023-05-07T03:22:22;20.70;51.70
3770;DHT22;1900;48.890;9.190;2023-05-07T03:24:49;20.70;51.70
3770;DHT22;1900;48.890;9.190;2023-05-07T03:27:15;20.70;51.60
3770;DHT22;1900;48.890;9.190;2023-05-07T03:29:41;20.70;51.60
3770;DHT22;1900;48.890;9.190;2023-05-07T03:32:07;20.60;51.50
3770;DHT22;1900;48.890;9.190;2023-05-07T03:34:33;20.60;51.60
3770;DHT22;1900;48.890;9.190;2023-05-07T03:36:59;20.60;51.60
3770;DHT22;1900;48.890;9.190;2023-05-07T03:39:24;20.60;51.60
3770;DHT22;1900;48.890;9.190;2023-05-07T03:41:50;20.50;51.60
3770;DHT22;1900;48.890;9.190;2023-05-07T03:44:16;20.50;51.60
3770;DHT22;1900;48.890;9.190;2023-05-07T03:46:46;20.50;51.50
3770;DHT22;1900;48.890;9.190;2023-05-07T03:49:11;20.50;51.60
3770;DHT22;1900;48.890;9.190;2023-05-07T03:51:37;20.50;51.50
3770;DHT22;1900;48.890;9.190;2023-05-07T03:54:05;20.40;51.40
3770;DHT22;1900;48.890;9.190;2023-05-07T03:56:32;20.40;51.50
3770;DHT22;1900;48.890;9.190;2023-05-07T03:59:01;20.40;51.50
3770;DHT22;1900;48.890;9.190;2023-05-07T04:01:27;20.30;51.50
3770;DHT22;1900;48.890;9.190;2023-05-07T04:03:54;20.30;51.60
3770;DHT22;1900;48.890;9.190;2023-05-07T04:06:20;20.30;51.60
3770;DHT22;1900;48.890;9.190;2023-05-07T04:08:48;20.30;51.60
3770;DHT22;1900;48.890;9.190;2023-05-07T04:11:13;20.30;51.70
3770;DHT22;1900;48.890;9.190;2023-05-07T04:13:39;20.30;51.70
3770;DHT22;1900;48.890;9.190;2023-05-07T04:16:08;20.30;51.70
3770;DHT22;1900;48.890;9.190;2023-05-07T04:18:35;20.30;51.70
3770;DHT22;1900;48.890;9.190;2023-05-07T04:21:01;20.30;51.70
3770;DHT22;1900;48.890;9.190;2023-05-07T04:23:27;20.20;51.70
3770;DHT22;1900;48.890;9.190;2023-05-07T04:25:53;20.20;51.70
3770;DHT22;1900;48.890;9.190;2023-05-07T04:28:40;20.20;51.70
3770;DHT22;1900;48.890;9.190;2023-05-07T04:31:06;20.20;51.70
3770;DHT22;1900;48.890;9.190;2023-05-07T04:33:36;20.20;51.80
3770;DHT22;1900;48.890;9.190;2023-05-07T04:36:04;20.20;51.80
3770;DHT22;1900;48.890;9.190;2023-05-07T04:38:34;20.20;51.80
3770;DHT22;1900;48.890;9.190;2023-05-07T04:41:05;20.20;51.80
3770;DHT22;1900;48.890;9.190;2023-05-07T04:43:34;20.20;51.90
3770;DHT22;1900;48.890;9.190;2023-05-07T04:46:00;20.20;51.90
3770;DHT22;1900;48.890;9.190;2023-05-07T04:48:27;20.20;51.90
3770;DHT22;1900;48.890;9.190;2023-05-07T04:50:54;20.20;52.00
3770;DHT22;1900;48.890;9.190;2023-05-07T04:53:23;20.20;52.00
3770;DHT22;1900;48.890;9.190;2023-05-07T04:55:55;20.20;52.00
3770;DHT22;1900;48.890;9.190;2023-05-07T04:58:23;20.20;52.10
3770;DHT22;1900;48.890;9.190;2023-05-07T05:00:49;20.20;52.10
3770;DHT22;1900;48.890;9.190;2023-05-07T05:03:15;20.20;52.10
3770;DHT22;1900;48.890;9.190;2023-05-07T05:05:41;20.30;52.30
3770;DHT22;1900;48.890;9.190;2023-05-07T05:08:06;20.30;52.30
3770;DHT22;1900;48.890;9.190;2023-05-07T05:10:35;20.30;52.30
3770;DHT22;1900;48.890;9.190;2023-05-07T05:13:01;20.30;52.30
3770;DHT22;1900;48.890;9.190;2023-05-07T05:15:27;20.40;52.40
3770;DHT22;1900;48.890;9.190;2023-05-07T05:17:52;20.40;52.40
3770;DHT22;1900;48.890;9.190;2023-05-07T05:20:18;20.40;52.40
3770;DHT22;1900;48.890;9.190;2023-05-07T05:22:44;20.40;52.40
3770;DHT22;1900;48.890;9.190;2023-05-07T05:25:12;20.40;52.40
3770;DHT22;1900;48.890;9.190;2023-05-07T05:27:38;20.40;52.40
3770;DHT22;1900;48.890;9.190;2023-05-07T05:30:05;20.40;52.40
3770;DHT22;1900;48.890;9.190;2023-05-07T05:32:32;20.40;52.40
3770;DHT22;1900;48.890;9.190;2023-05-07T05:34:58;20.40;52.40
3770;DHT22;1900;48.890;9.190;2023-05-07T05:37:25;20.50;52.50
3770;DHT22;1900;48.890;9.190;2023-05-07T05:39:50;20.50;52.50
3770;DHT22;1900;48.890;9.190;2023-05-07T05:42:17;20.50;52.50
3770;DHT22;1900;48.890;9.190;2023-05-07T05:44:43;20.60;52.70
3770;DHT22;1900;48.890;9.190;2023-05-07T05:47:09;20.50;52.60
3770;DHT22;1900;48.890;9.190;2023-05-07T05:49:35;20.60;52.70
3770;DHT22;1900;48.890;9.190;2023-05-07T05:52:02;20.60;52.70
3770;DHT22;1900;48.890;9.190;2023-05-07T05:54:28;20.60;52.80
3770;DHT22;1900;48.890;9.190;2023-05-07T05:56:54;20.70;52.90
3770;DHT22;1900;48.890;9.190;2023-05-07T05:59:24;20.70;52.90
3770;DHT22;1900;48.890;9.190;2023-05-07T06:01:54;20.70;52.90
3770;DHT22;1900;48.890;9.190;2023-05-07T06:04:20;20.80;53.00
3770;DHT22;1900;48.890;9.190;2023-05-07T06:06:46;20.80;53.00
3770;DHT22;1900;48.890;9.190;2023-05-07T06:09:12;20.80;53.00
3770;DHT22;1900;48.890;9.190;2023-05-07T06:11:42;20.80;53.00
3770;DHT22;1900;48.890;9.190;2023-05-07T06:14:09;20.90;53.10
3770;DHT22;1900;48.890;9.190;2023-05-07T06:16:35;20.90;53.10
3770;DHT22;1900;48.890;9.190;2023-05-07T06:19:02;20.90;53.20
3770;DHT22;1900;48.890;9.190;2023-05-07T06:21:27;21.00;53.30
3770;DHT22;1900;48.890;9.190;2023-05-07T06:23:53;21.00;53.30
3770;DHT22;1900;48.890;9.190;2023-05-07T06:26:20;21.10;53.40
3770;DHT22;1900;48.890;9.190;2023-05-07T06:28:47;21.10;53.40
3770;DHT22;1900;48.890;9.190;2023-05-07T06:31:18;21.10;53.40
3770;DHT22;1900;48.890;9.190;2023-05-07T06:33:54;21.20;53.60
3770;DHT22;1900;48.890;9.190;2023-05-07T06:36:22;21.20;53.60
3770;DHT22;1900;48.890;9.190;2023-05-07T06:38:48;21.20;53.60
3770;DHT22;1900;48.890;9.190;2023-05-07T06:41:14;21.30;53.70
3770;DHT22;1900;48.890;9.190;2023-05-07T06:43:43;21.30;53.70
3770;DHT22;1900;48.890;9.190;2023-05-07T06:46:27;21.40;53.70
3770;DHT22;1900;48.890;9.190;2023-05-07T06:48:52;21.40;53.80
3770;DHT22;1900;48.890;9.190;2023-05-07T06:51:22;21.40;53.80
3770;DHT22;1900;48.890;9.190;2023-05-07T06:53:49;21.50;54.60
3770;DHT22;1900;48.890;9.190;2023-05-07T06:56:15;21.50;54.00
3770;DHT22;1900;48.890;9.190;2023-05-07T06:58:41;21.60;54.10
3770;DHT22;1900;48.890;9.190;2023-05-07T07:01:07;21.60;54.10
3770;DHT22;1900;48.890;9.190;2023-05-07T07:03:34;21.70;54.20
3770;DHT22;1900;48.890;9.190;2023-05-07T07:06:00;21.80;54.40
3770;DHT22;1900;48.890;9.190;2023-05-07T07:08:28;21.80;54.40
3770;DHT22;1900;48.890;9.190;2023-05-07T07:10:54;21.90;54.50
3770;DHT22;1900;48.890;9.190;2023-05-07T07:13:20;22.00;54.50
3770;DHT22;1900;48.890;9.190;2023-05-07T07:15:46;22.00;54.50
3770;DHT22;1900;48.890;9.190;2023-05-07T07:18:12;22.10;54.60
3770;DHT22;1900;48.890;9.190;2023-05-07T07:20:38;22.10;54.60
3770;DHT22;1900;48.890;9.190;2023-05-07T07:23:06;22.20;54.70
3770;DHT22;1900;48.890;9.190;2023-05-07T07:25:32;22.30;54.80
3770;DHT22;1900;48.890;9.190;2023-05-07T07:27:58;22.30;54.80
3770;DHT22;1900;48.890;9.190;2023-05-07T07:30:26;22.40;54.90
3770;DHT22;1900;48.890;9.190;2023-05-07T07:32:52;22.40;54.70
3770;DHT22;1900;48.890;9.190;2023-05-07T07:35:19;22.50;54.80
3770;DHT22;1900;48.890;9.190;2023-05-07T07:37:46;22.50;54.80
3770;DHT22;1900;48.890;9.190;2023-05-07T07:40:14;22.50;54.80
3770;DHT22;1900;48.890;9.190;2023-05-07T07:42:40;22.60;55.00
3770;DHT22;1900;48.890;9.190;2023-05-07T07:45:09;22.60;55.00
3770;DHT22;1900;48.890;9.190;2023-05-07T07:47:39;22.70;55.10
3770;DHT22;1900;48.890;9.190;2023-05-07T07:50:06;22.80;55.20
3770;DHT22;1900;48.890;9.190;2023-05-07T07:52:36;22.80;55.20
3770;DHT22;1900;48.890;9.190;2023-05-07T07:55:02;22.90;55.20
3770;DHT22;1900;48.890;9.190;2023-05-07T07:57:28;22.90;55.20
3770;DHT22;1900;48.890;9.190;2023-05-07T07:59:58;22.90;55.20
3770;DHT22;1900;48.890;9.190;2023-05-07T08:02:24;22.90;55.10
3770;DHT22;1900;48.890;9.190;2023-05-07T08:04:50;23.00;55.20
3770;DHT22;1900;48.890;9.190;2023-05-07T08:07:16;23.10;55.90
3770;DHT22;1900;48.890;9.190;2023-05-07T08:09:47;23.10;55.40
3770;DHT22;1900;48.890;9.190;2023-05-07T08:12:16;23.10;55.30
3770;DHT22;1900;48.890;9.190;2023-05-07T08:14:42;23.20;55.40
3770;DHT22;1900;48.890;9.190;2023-05-07T08:17:08;23.20;55.40
3770;DHT22;1900;48.890;9.190;2023-05-07T08:19:36;23.20;55.40
3770;DHT22;1900;48.890;9.190;2023-05-07T08:22:04;23.20;55.40
3770;DHT22;1900;48.890;9.190;2023-05-07T08:24:32;23.30;55.50
3770;DHT22;1900;48.890;9.190;2023-05-07T08:26:58;23.40;55.70
3770;DHT22;1900;48.890;9.190;2023-05-07T08:29:25;23.40;55.70
3770;DHT22;1900;48.890;9.190;2023-05-07T08:31:51;23.40;55.80
3770;DHT22;1900;48.890;9.190;2023-05-07T08:34:17;23.50;55.90
3770;DHT22;1900;48.890;9.190;2023-05-07T08:36:45;23.60;56.00
3770;DHT22;1900;48.890;9.190;2023-05-07T08:39:15;23.60;56.00
3770;DHT22;1900;48.890;9.190;2023-05-07T08:41:44;23.60;55.90
3770;DHT22;1900;48.890;9.190;2023-05-07T08:44:12;23.70;55.90
3770;DHT22;1900;48.890;9.190;2023-05-07T08:46:40;23.70;55.90
3770;DHT22;1900;48.890;9.190;2023-05-07T08:49:08;23.70;55.90
3770;DHT22;1900;48.890;9.190;2023-05-07T08:51:34;23.80;56.00
3770;DHT22;1900;48.890;9.190;2023-05-07T08:54:01;23.80;56.00
3770;DHT22;1900;48.890;9.190;2023-05-07T08:56:33;23.90;56.10
3770;DHT22;1900;48.890;9.190;2023-05-07T08:58:59;24.00;56.30
3770;DHT22;1900;48.890;9.190;2023-05-07T09:01:27;24.00;56.50
3770;DHT22;1900;48.890;9.190;2023-05-07T09:03:54;24.10;56.70
3770;DHT22;1900;48.890;9.190;2023-05-07T09:06:21;24.20;56.70
3770;DHT22;1900;48.890;9.190;2023-05-07T09:08:52;24.30;56.90
3770;DHT22;1900;48.890;9.190;2023-05-07T09:11:23;24.50;57.10
3770;DHT22;1900;48.890;9.190;2023-05-07T09:13:56;24.50;57.10
3770;DHT22;1900;48.890;9.190;2023-05-07T09:16:26;24.60;57.30
3770;DHT22;1900;48.890;9.190;2023-05-07T09:18:53;24.80;57.50
3770;DHT22;1900;48.890;9.190;2023-05-07T09:21:21;24.80;57.40
3770;DHT22;1900;48.890;9.190;2023-05-07T09:23:54;25.00;57.40
3770;DHT22;1900;48.890;9.190;2023-05-07T09:26:26;25.00;57.30
3770;DHT22;1900;48.890;9.190;2023-05-07T09:28:53;25.10;57.40
3770;DHT22;1900;48.890;9.190;2023-05-07T09:31:20;25.20;57.50
3770;DHT22;1900;48.890;9.190;2023-05-07T09:33:48;25.30;57.60
3770;DHT22;1900;48.890;9.190;2023-05-07T09:36:14;25.40;57.70
3770;DHT22;1900;48.890;9.190;2023-05-07T09:38:41;25.50;57.80
3770;DHT22;1900;48.890;9.190;2023-05-07T09:41:13;25.60;57.90
3770;DHT22;1900;48.890;9.190;2023-05-07T09:44:01;25.70;57.90
3770;DHT22;1900;48.890;9.190;2023-05-07T09:46:36;25.80;57.80
3770;DHT22;1900;48.890;9.190;2023-05-07T09:49:07;25.90;57.80
3770;DHT22;1900;48.890;9.190;2023-05-07T09:51:39;26.00;58.60
3770;DHT22;1900;48.890;9.190;2023-05-07T09:54:07;26.10;58.00
3770;DHT22;1900;48.890;9.190;2023-05-07T09:56:35;26.20;58.00
3770;DHT22;1900;48.890;9.190;2023-05-07T09:59:05;26.20;57.80
3770;DHT22;1900;48.890;9.190;2023-05-07T10:01:33;26.40;57.70
3770;DHT22;1900;48.890;9.190;2023-05-07T10:04:02;26.50;57.90
3770;DHT22;1900;48.890;9.190;2023-05-07T10:06:30;26.50;58.10
3770;DHT22;1900;48.890;9.190;2023-05-07T10:08:56;26.70;58.90
3770;DHT22;1900;48.890;9.190;2023-05-07T10:11:23;26.80;58.50
3770;DHT22;1900;48.890;9.190;2023-05-07T10:13:50;27.00;58.60
3770;DHT22;1900;48.890;9.190;2023-05-07T10:16:17;27.10;58.70
3770;DHT22;1900;48.890;9.190;2023-05-07T10:18:46;27.20;58.80
3770;DHT22;1900;48.890;9.190;2023-05-07T10:21:19;27.40;58.70
3770;DHT22;1900;48.890;9.190;2023-05-07T10:24:07;27.50;58.30
3770;DHT22;1900;48.890;9.190;2023-05-07T10:26:45;27.70;58.40
3770;DHT22;1900;48.890;9.190;2023-05-07T10:34:45;28.00;58.70
3770;DHT22;1900;48.890;9.190;2023-05-07T10:37:13;28.10;58.60
3770;DHT22;1900;48.890;9.190;2023-05-07T10:39:39;28.30;58.80
3770;DHT22;1900;48.890;9.190;2023-05-07T10:42:13;28.40;58.70
3770;DHT22;1900;48.890;9.190;2023-05-07T10:44:43;28.50;58.80
3770;DHT22;1900;48.890;9.190;2023-05-07T10:47:17;28.60;58.80
3770;DHT22;1900;48.890;9.190;2023-05-07T10:52:21;28.80;58.60
3770;DHT22;1900;48.890;9.190;2023-05-07T10:57:49;29.00;58.50
3770;DHT22;1900;48.890;9.190;2023-05-07T11:05:30;29.30;58.40
3770;DHT22;1900;48.890;9.190;2023-05-07T11:08:10;29.30;57.80
3770;DHT22;1900;48.890;9.190;2023-05-07T11:10:53;29.30;57.60
3770;DHT22;1900;48.890;9.190;2023-05-07T11:13:46;29.30;57.40
3770;DHT22;1900;48.890;9.190;2023-05-07T11:16:24;29.30;57.20
3770;DHT22;1900;48.890;9.190;2023-05-07T11:18:58;29.30;57.00
3770;DHT22;1900;48.890;9.190;2023-05-07T11:21:38;29.30;57.10
3770;DHT22;1900;48.890;9.190;2023-05-07T11:24:14;29.30;57.60
3770;DHT22;1900;48.890;9.190;2023-05-07T11:26:55;29.30;56.80
3770;DHT22;1900;48.890;9.190;2023-05-07T11:29:23;29.20;56.60
3770;DHT22;1900;48.890;9.190;2023-05-07T11:31:55;29.10;56.40
3770;DHT22;1900;48.890;9.190;2023-05-07T11:34:27;29.10;56.40
3770;DHT22;1900;48.890;9.190;2023-05-07T11:36:55;29.00;56.50
3770;DHT22;1900;48.890;9.190;2023-05-07T11:39:32;29.00;56.60
3770;DHT22;1900;48.890;9.190;2023-05-07T11:42:01;29.00;56.70
3770;DHT22;1900;48.890;9.190;2023-05-07T11:44:45;29.00;56.80
3770;DHT22;1900;48.890;9.190;2023-05-07T11:47:17;29.00;56.60
3770;DHT22;1900;48.890;9.190;2023-05-07T11:49:46;29.00;56.60
3770;DHT22;1900;48.890;9.190;2023-05-07T11:52:13;28.90;56.50
3770;DHT22;1900;48.890;9.190;2023-05-07T11:54:38;28.90;56.40
3770;DHT22;1900;48.890;9.190;2023-05-07T11:57:04;28.90;56.50
3770;DHT22;1900;48.890;9.190;2023-05-07T11:59:38;28.90;56.40
3770;DHT22;1900;48.890;9.190;2023-05-07T12:02:06;28.90;56.30
3770;DHT22;1900;48.890;9.190;2023-05-07T12:04:31;28.80;56.30
3770;DHT22;1900;48.890;9.190;2023-05-07T12:06:57;28.80;55.80
3770;DHT22;1900;48.890;9.190;2023-05-07T12:09:23;28.70;55.80
3770;DHT22;1900;48.890;9.190;2023-05-07T12:11:49;28.70;56.00
3770;DHT22;1900;48.890;9.190;2023-05-07T12:14:16;28.70;56.10
3770;DHT22;1900;48.890;9.190;2023-05-07T12:16:43;28.70;56.20
3770;DHT22;1900;48.890;9.190;2023-05-07T12:19:10;28.60;55.90
3770;DHT22;1900;48.890;9.190;2023-05-07T12:21:38;28.60;56.00
3770;DHT22;1900;48.890;9.190;2023-05-07T12:24:05;28.60;56.10
3770;DHT22;1900;48.890;9.190;2023-05-07T12:26:31;28.60;56.10
3770;DHT22;1900;48.890;9.190;2023-05-07T12:29:02;28.60;56.10
3770;DHT22;1900;48.890;9.190;2023-05-07T12:31:29;28.60;56.00
3770;DHT22;1900;48.890;9.190;2023-05-07T12:33:54;28.60;56.10
3770;DHT22;1900;48.890;9.190;2023-05-07T12:36:20;28.50;56.00
3770;DHT22;1900;48.890;9.190;2023-05-07T12:38:49;28.60;55.80
3770;DHT22;1900;48.890;9.190;2023-05-07T12:41:15;28.60;55.70
3770;DHT22;1900;48.890;9.190;2023-05-07T12:43:44;28.50;55.70
3770;DHT22;1900;48.890;9.190;2023-05-07T12:46:11;28.40;55.60
3770;DHT22;1900;48.890;9.190;2023-05-07T12:48:43;28.40;55.40
3770;DHT22;1900;48.890;9.190;2023-05-07T12:51:11;28.40;55.50
3770;DHT22;1900;48.890;9.190;2023-05-07T12:53:42;28.30;55.50
3770;DHT22;1900;48.890;9.190;2023-05-07T12:56:08;28.30;55.50
3770;DHT22;1900;48.890;9.190;2023-05-07T12:58:35;28.30;55.50
3770;DHT22;1900;48.890;9.190;2023-05-07T13:01:05;28.30;55.50
3770;DHT22;1900;48.890;9.190;2023-05-07T13:03:36;28.30;55.30
3770;DHT22;1900;48.890;9.190;2023-05-07T13:06:07;28.20;55.20
3770;DHT22;1900;48.890;9.190;2023-05-07T13:08:39;28.10;55.10
3770;DHT22;1900;48.890;9.190;2023-05-07T13:11:09;28.00;54.80
3770;DHT22;1900;48.890;9.190;2023-05-07T13:13:36;28.00;54.80
3770;DHT22;1900;48.890;9.190;2023-05-07T13:16:06;27.80;54.60
3770;DHT22;1900;48.890;9.190;2023-05-07T13:18:33;27.70;54.30
3770;DHT22;1900;48.890;9.190;2023-05-07T13:21:02;27.60;54.20
3770;DHT22;1900;48.890;9.190;2023-05-07T13:23:28;27.40;54.10
3770;DHT22;1900;48.890;9.190;2023-05-07T13:25:55;27.30;54.00
3770;DHT22;1900;48.890;9.190;2023-05-07T13:28:22;27.10;53.90
3770;DHT22;1900;48.890;9.190;2023-05-07T13:30:48;27.00;53.90
3770;DHT22;1900;48.890;9.190;2023-05-07T13:33:14;26.90;53.90
3770;DHT22;1900;48.890;9.190;2023-05-07T13:35:40;26.80;53.90
3770;DHT22;1900;48.890;9.190;2023-05-07T13:38:06;26.60;53.70
3770;DHT22;1900;48.890;9.190;2023-05-07T13:40:32;26.50;53.50
3770;DHT22;1900;48.890;9.190;2023-05-07T13:42:58;26.40;53.40
3770;DHT22;1900;48.890;9.190;2023-05-07T13:45:32;26.20;53.30
3770;DHT22;1900;48.890;9.190;2023-05-07T13:47:58;26.10;53.10
3770;DHT22;1900;48.890;9.190;2023-05-07T13:50:23;25.90;53.00
3770;DHT22;1900;48.890;9.190;2023-05-07T13:52:52;25.70;52.80
3770;DHT22;1900;48.890;9.190;2023-05-07T13:55:19;25.50;52.80
3770;DHT22;1900;48.890;9.190;2023-05-07T13:57:57;25.40;52.90
3770;DHT22;1900;48.890;9.190;2023-05-07T14:00:24;25.30;52.90
3770;DHT22;1900;48.890;9.190;2023-05-07T14:02:50;25.10;52.90
3770;DHT22;1900;48.890;9.190;2023-05-07T14:05:16;25.00;53.00
3770;DHT22;1900;48.890;9.190;2023-05-07T14:07:42;24.90;52.90
3770;DHT22;1900;48.890;9.190;2023-05-07T14:10:07;24.80;52.90
3770;DHT22;1900;48.890;9.190;2023-05-07T14:12:33;24.80;52.90
3770;DHT22;1900;48.890;9.190;2023-05-07T14:15:00;24.70;52.90
3770;DHT22;1900;48.890;9.190;2023-05-07T14:17:25;24.60;52.90
3770;DHT22;1900;48.890;9.190;2023-05-07T14:19:53;24.50;52.90
3770;DHT22;1900;48.890;9.190;2023-05-07T14:22:25;24.50;53.00
3770;DHT22;1900;48.890;9.190;2023-05-07T14:24:50;24.40;53.00
3770;DHT22;1900;48.890;9.190;2023-05-07T14:27:16;24.40;53.30
3770;DHT22;1900;48.890;9.190;2023-05-07T14:29:42;24.40;53.40
3770;DHT22;1900;48.890;9.190;2023-05-07T14:32:10;24.30;53.50
3770;DHT22;1900;48.890;9.190;2023-05-07T14:34:36;24.30;53.60
3770;DHT22;1900;48.890;9.190;2023-05-07T14:37:03;24.30;53.60
3770;DHT22;1900;48.890;9.190;2023-05-07T14:39:29;24.20;53.60
3770;DHT22;1900;48.890;9.190;2023-05-07T14:41:55;24.20;53.50
3770;DHT22;1900;48.890;9.190;2023-05-07T14:44:22;24.20;53.50
3770;DHT22;1900;48.890;9.190;2023-05-07T14:46:48;24.10;53.40
3770;DHT22;1900;48.890;9.190;2023-05-07T14:49:14;24.00;53.60
3770;DHT22;1900;48.890;9.190;2023-05-07T14:51:46;24.00;53.60
3770;DHT22;1900;48.890;9.190;2023-05-07T14:54:18;23.90;53.80
3770;DHT22;1900;48.890;9.190;2023-05-07T14:56:43;23.90;53.80
3770;DHT22;1900;48.890;9.190;2023-05-07T14:59:09;23.90;54.00
3770;DHT22;1900;48.890;9.190;2023-05-07T15:01:36;23.80;53.90
3770;DHT22;1900;48.890;9.190;2023-05-07T15:04:05;23.90;54.20
3770;DHT22;1900;48.890;9.190;2023-05-07T15:06:31;23.80;54.10
3770;DHT22;1900;48.890;9.190;2023-05-07T15:08:59;23.80;54.10
3770;DHT22;1900;48.890;9.190;2023-05-07T15:11:25;23.80;54.10
3770;DHT22;1900;48.890;9.190;2023-05-07T15:13:51;23.80;54.20
3770;DHT22;1900;48.890;9.190;2023-05-07T15:16:17;23.80;54.40
3770;DHT22;1900;48.890;9.190;2023-05-07T15:18:42;23.80;54.40
3770;DHT22;1900;48.890;9.190;2023-05-07T15:21:08;23.80;54.50
3770;DHT22;1900;48.890;9.190;2023-05-07T15:23:34;23.80;54.70
3770;DHT22;1900;48.890;9.190;2023-05-07T15:26:00;23.80;54.80
3770;DHT22;1900;48.890;9.190;2023-05-07T15:28:27;23.80;54.90
3770;DHT22;1900;48.890;9.190;2023-05-07T15:30:55;23.80;54.90
3770;DHT22;1900;48.890;9.190;2023-05-07T15:33:21;23.80;55.10
3770;DHT22;1900;48.890;9.190;2023-05-07T15:35:48;23.80;54.90
3770;DHT22;1900;48.890;9.190;2023-05-07T15:38:14;23.80;54.80
3770;DHT22;1900;48.890;9.190;2023-05-07T15:40:39;23.70;54.80
3770;DHT22;1900;48.890;9.190;2023-05-07T15:43:09;23.70;54.70
3770;DHT22;1900;48.890;9.190;2023-05-07T15:45:39;23.60;54.70
3770;DHT22;1900;48.890;9.190;2023-05-07T15:48:06;23.60;54.90
3770;DHT22;1900;48.890;9.190;2023-05-07T15:50:34;23.60;55.00
3770;DHT22;1900;48.890;9.190;2023-05-07T15:53:01;23.60;55.00
3770;DHT22;1900;48.890;9.190;2023-05-07T15:55:27;23.60;55.10
3770;DHT22;1900;48.890;9.190;2023-05-07T15:57:52;23.60;55.30
3770;DHT22;1900;48.890;9.190;2023-05-07T16:00:20;23.60;55.30
3770;DHT22;1900;48.890;9.190;2023-05-07T16:02:46;23.60;55.40
3770;DHT22;1900;48.890;9.190;2023-05-07T16:05:11;23.60;55.50
3770;DHT22;1900;48.890;9.190;2023-05-07T16:07:40;23.60;55.50
3770;DHT22;1900;48.890;9.190;2023-05-07T16:10:08;23.60;55.50
3770;DHT22;1900;48.890;9.190;2023-05-07T16:12:35;23.60;55.40
3770;DHT22;1900;48.890;9.190;2023-05-07T16:15:00;23.60;55.60
3770;DHT22;1900;48.890;9.190;2023-05-07T16:17:27;23.60;55.50
3770;DHT22;1900;48.890;9.190;2023-05-07T16:19:53;23.60;55.60
3770;DHT22;1900;48.890;9.190;2023-05-07T16:22:18;23.60;55.60